Time;durP1;ratioP1;P1;durP2;ratioP2;P2;SDS_P1;SDS_P2;PMS_P1;PMS_P2;Temp;Humidity;BMP_temperature;BMP_pressure;BME280_temperature;BME280_humidity;BME280_pressure;Samples;Min_cycle;Max_cycle;Signal;HPM_P1;HPM_P2
2022/12/17 13:06:36;;;;;;;94.80;27.60;;;0.30;99.90;;;;;;5052902;28;20480;-76
2022/12/17 13:09:14;;;;;;;94.82;28.13;;;0.40;99.90;;;;;;5052692;28;20060;-77
2022/12/17 13:11:45;;;;;;;93.70;29.08;;;1.00;99.90;;;;;;5052816;28;20053;-76
2022/12/17 13:14:20;;;;;;;80.95;25.52;;;0.30;99.90;;;;;;5052839;28;20053;-77
2022/12/17 13:16:46;;;;;;;76.07;23.27;;;0.30;99.90;;;;;;5036145;28;20055;-77
2022/12/17 13:19:31;;;;;;;89.45;25.95;;;0.70;99.90;;;;;;5052719;28;20136;-76
2022/12/17 13:22:15;;;;;;;92.57;28.92;;;0.50;99.90;;;;;;5036045;28;20057;-76
2022/12/17 13:24:46;;;;;;;75.55;24.58;;;0.30;99.90;;;;;;5052537;28;20045;-77
2022/12/17 13:27:31;;;;;;;75.60;23.20;;;1.20;99.90;;;;;;5052632;28;20045;-76
2022/12/17 13:30:09;;;;;;;89.63;25.95;;;-0.30;99.90;;;;;;5035682;28;20090;-76
2022/12/17 13:32:57;;;;;;;81.13;27.70;;;0.20;99.90;;;;;;5035970;28;20135;-77
2022/12/17 13:35:47;;;;;;;87.80;27.08;;;0.10;99.90;;;;;;5036042;28;20087;-77
2022/12/17 13:38:32;;;;;;;97.15;29.02;;;0.20;99.90;;;;;;5052559;28;20410;-77
2022/12/17 13:41:16;;;;;;;90.28;28.02;;;0.10;99.90;;;;;;5035814;28;20127;-77
2022/12/17 13:43:52;;;;;;;95.97;29.58;;;0.10;99.90;;;;;;5035270;28;20460;-77
2022/12/17 13:46:41;;;;;;;86.32;26.73;;;0.80;99.90;;;;;;5052169;28;20045;-77
2022/12/17 13:49:18;;;;;;;92.63;28.92;;;0.10;99.90;;;;;;5051849;28;20061;-77
2022/12/17 13:51:44;;;;;;;90.63;28.02;;;0.10;99.90;;;;;;5052135;28;20048;-77
2022/12/17 13:54:21;;;;;;;93.38;28.77;;;0.20;99.90;;;;;;5052100;28;20052;-77
2022/12/17 13:56:47;;;;;;;93.15;26.52;;;0.60;99.90;;;;;;5051989;28;20055;-77
2022/12/17 13:59:22;;;;;;;97.32;27.13;;;1.40;99.90;;;;;;5035442;28;20041;-76
2022/12/17 14:01:52;;;;;;;91.70;28.75;;;0.20;99.90;;;;;;5035057;28;20051;-77
2022/12/17 14:04:29;;;;;;;86.07;24.75;;;0.10;99.90;;;;;;5035426;28;20048;-77
2022/12/17 14:07:02;;;;;;;82.80;25.85;;;0.10;99.90;;;;;;5035418;28;20072;-77
2022/12/17 14:09:34;;;;;;;82.45;26.02;;;1.00;99.90;;;;;;5035122;28;20048;-77
2022/12/17 14:12:23;;;;;;;83.85;25.17;;;1.00;99.90;;;;;;5051372;28;20056;-77
2022/12/17 14:15:09;;;;;;;93.82;27.92;;;0.10;99.90;;;;;;5035114;28;20190;-76
2022/12/17 14:17:39;;;;;;;86.07;27.70;;;0.10;99.90;;;;;;5035060;28;20048;-75
2022/12/17 14:20:15;;;;;;;79.25;23.25;;;0.00;99.90;;;;;;5035264;28;20065;-77
2022/12/17 14:22:44;;;;;;;87.25;25.42;;;0.00;99.90;;;;;;5034942;28;20052;-78
2022/12/17 14:25:19;;;;;;;74.32;24.25;;;0.00;99.90;;;;;;5034853;28;20049;-75
2022/12/17 14:27:56;;;;;;;84.60;27.10;;;0.00;99.90;;;;;;5051455;28;20052;-76
2022/12/17 14:30:40;;;;;;;92.35;27.67;;;0.00;99.90;;;;;;5034580;28;20045;-76
2022/12/17 14:33:27;;;;;;;81.93;24.52;;;0.00;99.90;;;;;;5035168;28;20064;-76
2022/12/17 14:35:55;;;;;;;83.57;26.38;;;0.00;99.90;;;;;;5051436;28;20049;-76
2022/12/17 14:38:21;;;;;;;95.82;28.63;;;0.00;99.90;;;;;;5035170;28;20084;-76
2022/12/17 14:40:47;;;;;;;75.45;23.75;;;1.00;99.90;;;;;;5035005;28;20041;-77
2022/12/17 14:43:14;;;;;;;90.32;26.20;;;0.80;99.90;;;;;;5035236;28;20137;-77
2022/12/17 14:51:29;;;;;;;78.25;24.55;;;-0.10;99.90;;;;;;5051325;28;20084;-75
2022/12/17 14:54:13;;;;;;;92.30;27.15;;;-0.10;99.90;;;;;;5051417;28;20128;-76
2022/12/17 14:56:42;;;;;;;83.32;23.75;;;-0.20;99.90;;;;;;5051068;28;20051;-77
2022/12/17 14:59:34;;;;;;;83.47;26.00;;;-0.20;99.90;;;;;;5018822;28;20094;-76
2022/12/17 15:02:22;;;;;;;86.78;27.05;;;-0.30;99.90;;;;;;5051179;28;20098;-76
2022/12/17 15:04:50;;;;;;;70.80;22.60;;;0.50;99.90;;;;;;5017487;28;20052;-77
2022/12/17 15:07:23;;;;;;;85.03;27.17;;;0.70;99.90;;;;;;5034897;28;20060;-77
2022/12/17 15:09:48;;;;;;;87.68;26.10;;;0.30;99.90;;;;;;5051180;28;20048;-76
2022/12/17 15:12:14;;;;;;;73.72;21.85;;;0.80;99.90;;;;;;5034772;28;20053;-77
2022/12/17 15:14:40;;;;;;;87.80;26.27;;;-0.40;99.90;;;;;;5051390;28;20045;-78
2022/12/17 15:17:05;;;;;;;83.40;25.48;;;-0.50;99.90;;;;;;5050950;28;20260;-78
2022/12/17 15:19:31;;;;;;;96.82;28.38;;;-0.50;99.90;;;;;;5018169;28;20482;-78
2022/12/17 15:21:57;;;;;;;101.43;27.42;;;-0.40;99.90;;;;;;5051169;28;20041;-78
2022/12/17 15:24:23;;;;;;;88.35;24.75;;;0.30;99.90;;;;;;5054866;28;20044;-77
2022/12/17 15:26:49;;;;;;;95.22;25.45;;;-0.50;99.90;;;;;;5037917;28;20112;-77
2022/12/17 15:29:14;;;;;;;94.57;25.90;;;0.60;99.90;;;;;;5038256;28;20052;-77
2022/12/17 15:31:40;;;;;;;103.85;28.08;;;0.10;99.90;;;;;;5038266;28;20546;-78
2022/12/17 15:34:06;;;;;;;99.00;27.35;;;0.10;99.90;;;;;;5021842;28;20190;-79
2022/12/17 15:36:32;;;;;;;97.22;27.60;;;0.40;99.90;;;;;;5038060;28;20044;-76
2022/12/17 15:38:58;;;;;;;92.80;25.73;;;0.60;99.90;;;;;;5037609;28;20037;-77
2022/12/17 15:44:08;;;;;;;108.13;25.73;;;0.20;99.90;;;;;;5040193;28;20124;-77
2022/12/17 15:46:34;;;;;;;92.25;23.50;;;-0.60;99.90;;;;;;5037399;28;20182;-77
2022/12/17 15:49:00;;;;;;;94.97;25.05;;;0.30;99.90;;;;;;5037465;28;20045;-78
2022/12/17 15:51:25;;;;;;;103.70;25.85;;;-0.60;99.90;;;;;;5054447;28;20133;-77
2022/12/17 15:53:51;;;;;;;103.85;25.25;;;-0.10;99.90;;;;;;5037451;28;20601;-78
2022/12/17 15:56:21;;;;;;;86.45;22.63;;;0.40;99.90;;;;;;5037886;28;20493;-78
2022/12/17 15:58:47;;;;;;;101.70;26.85;;;0.50;99.90;;;;;;5054159;28;20431;-79
2022/12/17 16:01:13;;;;;;;101.22;25.13;;;-0.70;99.90;;;;;;5054427;28;20052;-77
2022/12/17 16:03:39;;;;;;;85.13;23.50;;;0.00;99.90;;;;;;5021447;28;20128;-78
2022/12/17 16:06:05;;;;;;;107.50;24.80;;;-0.70;99.90;;;;;;5054362;28;20533;-77
2022/12/17 16:08:31;;;;;;;84.20;21.10;;;-0.70;99.90;;;;;;5021376;28;20084;-78
2022/12/17 16:10:56;;;;;;;85.57;20.13;;;0.20;99.90;;;;;;5037136;28;20131;-78
2022/12/17 16:13:22;;;;;;;95.15;21.95;;;-0.60;99.90;;;;;;5037394;28;20076;-78
2022/12/17 16:15:59;;;;;;;100.18;24.65;;;0.10;99.90;;;;;;5037977;28;20080;-77
2022/12/17 16:18:25;;;;;;;88.10;21.92;;;0.10;99.90;;;;;;5054607;28;20114;-77
2022/12/17 16:20:50;;;;;;;105.43;24.45;;;0.30;99.90;;;;;;5021180;28;20040;-78
2022/12/17 16:23:18;;;;;;;102.85;24.27;;;-1.00;99.90;;;;;;5004985;28;20562;-79
2022/12/17 16:25:44;;;;;;;104.38;24.98;;;-0.20;99.90;;;;;;5054761;28;20084;-78
2022/12/17 16:28:10;;;;;;;85.38;20.27;;;0.30;99.90;;;;;;5004751;28;20087;-78
2022/12/17 16:30:36;;;;;;;74.70;19.02;;;0.20;99.90;;;;;;5054119;28;20776;-78
2022/12/17 16:33:01;;;;;;;98.47;21.75;;;-0.50;99.90;;;;;;5037218;28;20379;-78
2022/12/17 16:35:27;;;;;;;85.32;22.05;;;-1.00;99.90;;;;;;5053646;28;20041;-78
2022/12/17 16:37:53;;;;;;;92.63;21.25;;;-1.10;99.90;;;;;;5053735;28;20072;-78
2022/12/17 16:40:19;;;;;;;99.38;22.33;;;-0.60;99.90;;;;;;5037520;28;20044;-78
2022/12/17 16:42:45;;;;;;;87.35;19.13;;;-0.30;99.90;;;;;;5037271;28;20186;-78
2022/12/17 16:45:11;;;;;;;73.68;18.63;;;-1.10;99.90;;;;;;5036845;28;20090;-78
2022/12/17 16:47:37;;;;;;;97.68;20.92;;;-1.20;99.90;;;;;;5037062;28;20048;-78
2022/12/17 16:50:03;;;;;;;83.32;20.73;;;-0.10;99.90;;;;;;5036246;28;20044;-79
2022/12/17 16:52:29;;;;;;;100.13;23.48;;;-1.10;99.90;;;;;;5053441;28;20057;-78
2022/12/17 16:54:54;;;;;;;69.28;15.98;;;-1.20;99.90;;;;;;5036945;28;20129;-78
2022/12/17 16:57:20;;;;;;;84.63;21.08;;;-0.80;99.90;;;;;;5004524;28;20044;-76
2022/12/17 16:59:46;;;;;;;85.60;20.23;;;-0.30;99.90;;;;;;5036778;28;20053;-77
2022/12/17 17:02:14;;;;;;;98.07;23.45;;;-1.20;99.90;;;;;;5036782;28;20088;-78
2022/12/17 17:04:40;;;;;;;109.57;24.13;;;-1.10;99.90;;;;;;5053967;28;20091;-78
2022/12/17 17:07:06;;;;;;;107.28;22.95;;;-0.30;99.90;;;;;;5036704;28;20040;-78
2022/12/17 17:09:31;;;;;;;112.88;26.15;;;-0.70;99.90;;;;;;5036903;28;20079;-78
2022/12/17 17:11:57;;;;;;;82.93;20.60;;;-0.30;99.90;;;;;;5036136;28;20060;-76
2022/12/17 17:14:24;;;;;;;94.07;22.50;;;-1.20;99.90;;;;;;5020449;28;20053;-78
2022/12/17 17:16:51;;;;;;;88.00;21.67;;;-1.20;99.90;;;;;;5020231;28;20099;-78
2022/12/17 17:19:17;;;;;;;116.40;24.30;;;-1.20;99.90;;;;;;5036467;28;20561;-78
2022/12/17 17:21:53;;;;;;;107.47;24.88;;;-0.30;99.90;;;;;;5052970;28;20048;-78
2022/12/17 17:24:22;;;;;;;45.03;13.38;;;-1.00;99.90;;;;;;5052842;28;20043;-78
2022/12/17 17:26:49;;;;;;;101.78;23.00;;;0.00;99.90;;;;;;5036274;28;20044;-78
2022/12/17 17:29:15;;;;;;;102.68;24.52;;;-1.10;99.90;;;;;;5036250;28;20048;-78
2022/12/17 17:31:41;;;;;;;115.57;25.25;;;-1.00;99.90;;;;;;5052770;28;20037;-78
2022/12/17 17:34:12;;;;;;;99.28;21.08;;;-0.30;99.90;;;;;;5036060;28;20110;-78
2022/12/17 17:36:39;;;;;;;125.03;25.98;;;-0.40;99.90;;;;;;5052819;28;20049;-79
2022/12/17 17:39:05;;;;;;;134.38;28.98;;;-0.70;99.90;;;;;;5036321;28;20463;-78
2022/12/17 17:41:32;;;;;;;132.05;29.10;;;0.10;99.90;;;;;;5036302;28;20041;-78
2022/12/17 17:44:16;;;;;;;120.55;26.25;;;-1.10;99.90;;;;;;5020165;28;20344;-77
2022/12/17 17:46:42;;;;;;;135.40;28.60;;;-1.10;99.90;;;;;;5051503;28;20483;-77
2022/12/17 17:49:08;;;;;;;120.20;26.65;;;-0.20;99.90;;;;;;5035425;28;20059;-77
2022/12/17 17:51:37;;;;;;;124.40;28.73;;;-0.40;99.90;;;;;;5035843;28;20467;-77
2022/12/17 17:54:03;;;;;;;125.43;28.38;;;-0.40;99.90;;;;;;5051734;28;20037;-77
2022/12/17 17:56:32;;;;;;;99.05;23.30;;;-1.10;99.90;;;;;;5035955;28;20045;-76
2022/12/17 17:59:02;;;;;;;115.18;25.70;;;-0.40;99.90;;;;;;5052135;28;20044;-77
2022/12/17 18:01:30;;;;;;;110.53;27.40;;;-1.20;99.90;;;;;;5052544;28;20048;-78
2022/12/17 18:03:58;;;;;;;107.93;24.95;;;-1.40;99.90;;;;;;5035765;28;20483;-77
2022/12/17 18:06:25;;;;;;;109.72;25.85;;;-1.30;99.90;;;;;;5035356;28;20059;-77
2022/12/17 18:08:51;;;;;;;114.97;26.27;;;-0.90;99.90;;;;;;5035944;28;20053;-78
2022/12/17 18:11:19;;;;;;;87.80;21.30;;;-0.30;99.90;;;;;;5035419;28;20092;-77
2022/12/17 18:13:56;;;;;;;111.72;27.65;;;-0.30;99.90;;;;;;5035753;28;20044;-78
2022/12/17 18:16:43;;;;;;;110.10;26.73;;;-0.80;99.90;;;;;;5036720;28;20033;-78
2022/12/17 18:19:14;;;;;;;89.97;23.55;;;-0.30;99.90;;;;;;5052335;28;20036;-78
2022/12/17 18:21:41;;;;;;;107.38;27.63;;;-1.50;99.90;;;;;;5035557;28;20040;-78
2022/12/17 18:24:11;;;;;;;87.32;22.30;;;-1.00;99.90;;;;;;5035271;28;20082;-77
2022/12/17 18:26:41;;;;;;;113.80;27.27;;;-0.30;99.90;;;;;;5035262;28;20063;-77
2022/12/17 18:29:20;;;;;;;100.65;25.70;;;-0.50;99.90;;;;;;5051333;28;20091;-77
2022/12/17 18:31:46;;;;;;;115.13;28.50;;;-0.50;99.90;;;;;;5035394;28;20049;-77
2022/12/17 18:34:15;;;;;;;96.10;23.73;;;-0.50;99.90;;;;;;5051625;28;20110;-77
2022/12/17 18:36:42;;;;;;;114.57;28.13;;;-1.00;99.90;;;;;;5035086;28;20048;-78
2022/12/17 18:39:14;;;;;;;110.53;28.30;;;-1.40;99.90;;;;;;5051428;28;20060;-77
2022/12/17 18:44:25;;;;;;;103.68;25.95;;;-1.60;99.90;;;;;;5051400;28;19917;-78
2022/12/17 18:46:51;;;;;;;102.50;27.92;;;-1.50;99.90;;;;;;5018472;28;20502;-77
2022/12/17 18:49:19;;;;;;;102.85;28.80;;;-1.50;99.90;;;;;;5033959;28;20045;-77
2022/12/17 18:51:47;;;;;;;128.02;30.33;;;-0.20;99.90;;;;;;5034761;28;20045;-78
2022/12/17 18:54:25;;;;;;;125.80;32.90;;;-0.20;99.90;;;;;;5051456;28;20112;-77
2022/12/17 18:56:51;;;;;;;134.15;31.42;;;-0.50;99.90;;;;;;5051696;28;20053;-78
2022/12/17 18:59:20;;;;;;;137.50;31.05;;;-1.40;99.90;;;;;;5055235;28;20076;-78
2022/12/17 19:01:47;;;;;;;91.90;25.77;;;-0.30;99.90;;;;;;5039000;28;20044;-78
2022/12/17 19:04:15;;;;;;;144.85;33.95;;;-0.40;99.90;;;;;;5038549;28;20509;-78
2022/12/17 19:06:42;;;;;;;132.38;31.58;;;-1.40;99.90;;;;;;5038729;28;20041;-79
2022/12/17 19:09:16;;;;;;;130.60;32.65;;;-1.40;99.90;;;;;;5038725;28;20103;-78
2022/12/17 19:11:42;;;;;;;141.57;32.88;;;-1.80;99.90;;;;;;5054887;28;20037;-78
2022/12/17 19:14:09;;;;;;;141.27;33.83;;;-0.60;99.90;;;;;;5038826;28;20449;-78
2022/12/17 19:16:35;;;;;;;160.30;39.15;;;-1.50;99.90;;;;;;5022295;28;20083;-78
2022/12/17 19:19:03;;;;;;;143.50;36.28;;;-0.50;99.90;;;;;;5054788;28;20076;-78
2022/12/17 19:21:30;;;;;;;151.55;38.17;;;-1.50;99.90;;;;;;5038242;28;20099;-79
2022/12/17 19:24:07;;;;;;;144.02;35.47;;;-1.00;99.90;;;;;;5038619;28;20054;-78
2022/12/17 19:26:34;;;;;;;122.60;32.15;;;-1.50;99.90;;;;;;5038263;28;20049;-78
2022/12/17 19:29:00;;;;;;;133.77;35.85;;;-0.60;99.90;;;;;;5038342;28;20057;-79
2022/12/17 19:31:28;;;;;;;91.28;30.15;;;-1.50;99.90;;;;;;5037856;28;20037;-78
2022/12/17 19:33:56;;;;;;;135.18;34.95;;;-0.50;99.90;;;;;;5054749;28;20124;-78
2022/12/17 19:36:26;;;;;;;134.80;35.13;;;-0.50;99.90;;;;;;5037819;28;20048;-78
2022/12/17 19:38:53;;;;;;;136.05;34.90;;;-0.20;99.90;;;;;;5054889;28;20044;-78
2022/12/17 19:41:20;;;;;;;142.52;34.95;;;-0.30;99.90;;;;;;5021775;28;20041;-78
2022/12/17 19:43:51;;;;;;;123.18;34.92;;;-1.30;99.90;;;;;;5038320;28;20100;-78
2022/12/17 19:46:18;;;;;;;136.25;34.05;;;-1.60;99.90;;;;;;5054670;28;20055;-78
2022/12/17 19:48:45;;;;;;;150.57;37.88;;;-1.60;99.90;;;;;;5021092;28;20475;-79
2022/12/17 19:51:13;;;;;;;158.77;37.72;;;-0.40;99.90;;;;;;5037615;28;20037;-78
2022/12/17 19:53:41;;;;;;;112.43;31.17;;;-1.00;99.90;;;;;;5037570;28;20386;-77
2022/12/17 19:56:23;;;;;;;149.27;36.03;;;-1.20;99.90;;;;;;5054355;28;20391;-78
2022/12/17 19:58:52;;;;;;;143.20;36.05;;;-1.50;99.90;;;;;;5054577;28;20095;-78
2022/12/17 20:01:21;;;;;;;137.10;34.83;;;-1.50;99.90;;;;;;5053768;28;20114;-78
2022/12/17 20:03:47;;;;;;;138.32;36.13;;;-0.60;99.90;;;;;;5037494;28;20394;-78
2022/12/17 20:06:16;;;;;;;147.93;37.92;;;-0.50;99.90;;;;;;5037513;28;20479;-79
2022/12/17 20:08:42;;;;;;;148.38;37.33;;;-1.50;99.90;;;;;;5036832;28;20041;-78
2022/12/17 20:14:00;;;;;;;141.88;37.03;;;-0.80;99.90;;;;;;5054066;28;20060;-78
2022/12/17 20:16:27;;;;;;;120.47;32.47;;;-1.60;99.90;;;;;;5053786;28;20490;-78
2022/12/17 20:18:53;;;;;;;148.32;36.65;;;-1.60;99.90;;;;;;5053728;28;20049;-78
2022/12/17 20:21:19;;;;;;;140.43;35.95;;;-1.60;99.90;;;;;;5037123;28;20052;-78
2022/12/17 20:23:48;;;;;;;123.05;32.13;;;-0.60;99.90;;;;;;5037655;28;20044;-77
2022/12/17 20:26:14;;;;;;;112.38;32.03;;;-1.50;99.90;;;;;;5053948;28;20051;-76
2022/12/17 20:28:40;;;;;;;118.72;32.50;;;-1.40;99.90;;;;;;5004700;28;20045;-77
2022/12/17 20:31:06;;;;;;;142.77;35.13;;;-0.50;99.90;;;;;;5036964;28;20451;-78
2022/12/17 20:33:32;;;;;;;138.82;34.80;;;-1.80;99.90;;;;;;5020553;28;20048;-78
2022/12/17 20:36:05;;;;;;;127.78;35.67;;;-1.60;99.90;;;;;;5036683;28;20041;-78
2022/12/17 20:38:31;;;;;;;142.38;37.05;;;-1.70;99.90;;;;;;5036543;28;20446;-78
2022/12/17 20:40:57;;;;;;;143.18;34.75;;;-0.60;99.90;;;;;;5037013;28;20068;-78
2022/12/17 20:43:23;;;;;;;112.93;30.60;;;-1.70;99.90;;;;;;5053202;28;20471;-77
2022/12/17 20:45:50;;;;;;;142.13;33.85;;;-1.00;99.90;;;;;;5036909;28;20049;-78
2022/12/17 20:48:17;;;;;;;138.40;34.83;;;-0.90;99.90;;;;;;5053374;28;20057;-78
2022/12/17 20:50:43;;;;;;;131.68;34.47;;;-1.30;99.90;;;;;;5003663;28;20134;-78
2022/12/17 20:53:10;;;;;;;109.63;29.10;;;-2.90;99.90;;;;;;5020168;28;20047;-77
2022/12/17 20:55:36;;;;;;;136.48;34.78;;;-1.90;99.90;;;;;;5019886;28;20045;-77
2022/12/17 20:58:02;;;;;;;139.45;35.75;;;-1.00;99.90;;;;;;5036091;28;20389;-77
2022/12/17 21:00:27;;;;;;;136.90;36.42;;;-1.80;99.90;;;;;;5036301;28;20045;-78
2022/12/17 21:02:53;;;;;;;149.70;37.10;;;-1.80;99.90;;;;;;5020285;28;20502;-77
2022/12/17 21:05:19;;;;;;;135.20;36.50;;;-0.80;99.90;;;;;;5003806;28;20067;-78
2022/12/17 21:07:45;;;;;;;155.57;38.55;;;-0.60;99.90;;;;;;5003450;28;20576;-78
2022/12/17 21:10:11;;;;;;;155.23;37.90;;;-1.80;99.90;;;;;;5035826;28;20048;-77
2022/12/17 21:15:21;;;;;;;153.75;36.40;;;-1.70;99.90;;;;;;5035989;28;20051;-77
2022/12/17 21:17:47;;;;;;;153.90;38.10;;;-1.70;99.90;;;;;;5019554;28;20040;-78
2022/12/17 21:20:13;;;;;;;143.95;35.13;;;-1.10;99.90;;;;;;5019770;28;20047;-77
2022/12/17 21:22:40;;;;;;;140.48;34.53;;;-1.70;99.90;;;;;;4987082;28;20102;-77
2022/12/17 21:25:07;;;;;;;128.30;32.08;;;-0.90;99.90;;;;;;5019881;28;20052;-79
2022/12/17 21:27:33;;;;;;;134.60;35.13;;;-1.80;99.90;;;;;;5019466;28;20123;-77
2022/12/17 21:30:00;;;;;;;147.75;35.05;;;-1.90;99.90;;;;;;5019673;28;20049;-79
2022/12/17 21:32:26;;;;;;;142.35;35.83;;;-1.90;99.90;;;;;;5020072;28;20045;-78
2022/12/17 21:34:52;;;;;;;146.35;33.47;;;-0.80;99.90;;;;;;5035582;28;20087;-78
2022/12/17 21:37:17;;;;;;;142.65;35.10;;;-0.80;99.90;;;;;;5020024;28;20041;-78
2022/12/17 21:39:43;;;;;;;145.35;35.25;;;-1.80;99.90;;;;;;5019349;28;20037;-78
2022/12/17 21:44:53;;;;;;;151.80;35.35;;;-0.70;99.90;;;;;;5036171;28;20132;-78
2022/12/17 21:47:19;;;;;;;148.05;35.08;;;-1.70;99.90;;;;;;5019275;28;20127;-78
2022/12/17 21:49:45;;;;;;;137.48;36.22;;;-1.80;99.90;;;;;;4986087;28;20519;-79
2022/12/17 21:52:11;;;;;;;128.65;33.03;;;-1.70;99.90;;;;;;5035989;28;20391;-77
2022/12/17 21:54:37;;;;;;;136.35;34.38;;;-1.90;99.90;;;;;;5018951;28;20052;-77
2022/12/17 21:57:03;;;;;;;142.50;35.65;;;-2.00;99.90;;;;;;5019662;28;20052;-77
2022/12/17 21:59:28;;;;;;;132.32;34.20;;;-1.90;99.90;;;;;;5019836;28;20044;-76
2022/12/17 22:01:57;;;;;;;147.35;36.20;;;-1.90;99.90;;;;;;5035526;28;20045;-78
2022/12/17 22:04:23;;;;;;;146.45;35.75;;;-1.30;99.90;;;;;;5020051;28;20041;-78
2022/12/17 22:06:49;;;;;;;161.60;36.38;;;-2.00;99.90;;;;;;5019367;28;20040;-77
2022/12/17 22:09:15;;;;;;;153.70;34.90;;;-2.00;99.90;;;;;;5035815;28;20044;-77
2022/12/17 22:11:41;;;;;;;132.65;34.85;;;-0.60;99.90;;;;;;5034957;28;20072;-77
2022/12/17 22:14:10;;;;;;;125.68;32.40;;;-0.80;99.90;;;;;;5035291;28;20458;-77
2022/12/17 22:16:45;;;;;;;124.53;30.10;;;-0.80;99.90;;;;;;5002802;28;20049;-78
2022/12/17 22:19:14;;;;;;;126.95;32.22;;;-2.00;99.90;;;;;;5019252;28;20087;-78
2022/12/17 22:21:42;;;;;;;116.35;30.58;;;-1.00;99.90;;;;;;5035349;28;20041;-78
2022/12/17 22:24:17;;;;;;;123.13;31.77;;;-1.80;99.90;;;;;;5018871;28;20045;-78
2022/12/17 22:26:43;;;;;;;140.00;34.80;;;-2.10;99.90;;;;;;5018722;28;20567;-78
2022/12/17 22:29:09;;;;;;;140.93;35.17;;;-1.30;99.90;;;;;;5018920;28;20049;-78
2022/12/17 22:34:21;;;;;;;110.15;27.25;;;-2.10;99.90;;;;;;5025930;28;20049;-77
2022/12/17 22:36:46;;;;;;;139.80;34.20;;;-1.30;99.90;;;;;;5022470;28;20055;-78
2022/12/17 22:39:15;;;;;;;144.50;33.00;;;-2.10;99.90;;;;;;5023056;28;20041;-78
2022/12/17 22:44:25;;;;;;;132.63;31.98;;;-1.30;99.90;;;;;;5039736;28;20044;-78
2022/12/17 22:46:51;;;;;;;145.63;34.08;;;-2.10;99.90;;;;;;5022600;28;20060;-78
2022/12/17 22:49:18;;;;;;;130.70;32.35;;;-1.60;99.90;;;;;;5047112;28;20114;-78
2022/12/17 22:51:44;;;;;;;140.70;33.13;;;-1.10;99.90;;;;;;5039157;28;20048;-78
2022/12/17 22:54:11;;;;;;;120.30;30.08;;;-2.00;99.90;;;;;;5038953;28;20080;-78
2022/12/17 22:56:39;;;;;;;142.75;34.83;;;-1.00;99.90;;;;;;5055723;28;20451;-78
2022/12/17 22:59:05;;;;;;;147.32;33.58;;;-1.00;99.90;;;;;;5038957;28;20475;-78
2022/12/17 23:01:31;;;;;;;154.60;35.95;;;-1.00;99.90;;;;;;5022793;28;20047;-78
2022/12/17 23:03:59;;;;;;;127.85;31.85;;;-0.90;99.90;;;;;;5039045;28;20052;-78
2022/12/17 23:06:25;;;;;;;128.48;33.20;;;-2.20;99.90;;;;;;5038759;28;20044;-78
2022/12/17 23:08:51;;;;;;;154.90;35.67;;;-1.30;99.90;;;;;;5055276;28;20076;-77
2022/12/17 23:11:25;;;;;;;135.82;32.83;;;-2.30;99.90;;;;;;5038818;28;20601;-78
2022/12/17 23:13:51;;;;;;;133.05;33.50;;;-1.20;99.90;;;;;;5038994;28;20059;-78
2022/12/17 23:16:18;;;;;;;127.75;31.63;;;-2.30;99.90;;;;;;5038614;28;20049;-77
2022/12/17 23:18:48;;;;;;;133.88;32.17;;;-2.40;99.90;;;;;;5055611;28;20071;-77
2022/12/17 23:21:18;;;;;;;138.40;33.55;;;-1.30;99.90;;;;;;5038954;28;20111;-77
2022/12/17 23:23:44;;;;;;;149.85;34.38;;;-2.40;99.90;;;;;;5055443;28;20049;-79
2022/12/17 23:26:16;;;;;;;152.50;37.28;;;-1.40;99.90;;;;;;5055346;28;20467;-77
2022/12/17 23:28:43;;;;;;;150.88;36.97;;;-2.40;99.90;;;;;;5038336;28;20048;-77
2022/12/17 23:31:19;;;;;;;152.23;36.65;;;-2.00;99.90;;;;;;5038155;28;20043;-77
2022/12/17 23:33:46;;;;;;;132.25;32.72;;;-2.10;99.90;;;;;;5037979;28;20080;-77
2022/12/17 23:36:17;;;;;;;132.63;33.90;;;-2.30;99.90;;;;;;5038363;28;20048;-77
2022/12/17 23:38:44;;;;;;;127.43;30.30;;;-0.60;99.90;;;;;;5054555;28;20045;-77
2022/12/17 23:41:12;;;;;;;137.00;33.50;;;-2.30;99.90;;;;;;5038367;28;20049;-77
2022/12/17 23:43:38;;;;;;;147.43;33.08;;;-1.40;99.90;;;;;;5037323;28;20536;-77
2022/12/17 23:46:05;;;;;;;136.52;31.63;;;-1.30;99.90;;;;;;5037464;28;20145;-78
2022/12/17 23:48:34;;;;;;;138.48;32.58;;;-2.40;99.90;;;;;;5021940;28;20483;-77
2022/12/17 23:51:00;;;;;;;136.27;33.25;;;-1.40;99.90;;;;;;5054326;28;20080;-77
2022/12/17 23:53:27;;;;;;;139.00;34.58;;;-1.40;99.90;;;;;;5037941;28;20037;-77
2022/12/17 23:55:53;;;;;;;132.57;31.50;;;-1.50;99.90;;;;;;5005232;28;20052;-77
2022/12/17 23:58:20;;;;;;;137.63;33.03;;;-1.80;99.90;;;;;;5038711;28;20378;-78
